createdAt,value
2023-02-17T00:02:26.292Z,54.92
2023-02-17T00:05:28.874Z,52.83
2023-02-17T00:08:31.179Z,55.58
2023-02-17T00:11:34.316Z,53.40
2023-02-17T00:14:37.026Z,55.30
2023-02-17T00:17:39.715Z,54.03
2023-02-17T00:20:42.187Z,53.03
2023-02-17T00:23:45.757Z,52.80
2023-02-17T00:26:48.575Z,52.20
2023-02-17T00:29:51.216Z,56.67
2023-02-17T00:32:55.682Z,50.78
2023-02-17T00:36:00.139Z,50.17
2023-02-17T00:39:02.772Z,50.50
2023-02-17T00:42:05.072Z,52.70
2023-02-17T00:45:07.892Z,50.83
2023-02-17T00:48:11.009Z,51.72
2023-02-17T00:51:14.899Z,52.92
2023-02-17T00:54:18.044Z,50.47
2023-02-17T00:57:20.883Z,55.57
2023-02-17T01:00:24.469Z,53.65
2023-02-17T01:03:29.369Z,54.80
2023-02-17T01:06:34.580Z,55.13
2023-02-17T01:09:37.270Z,51.47
2023-02-17T01:12:40.062Z,52.42
2023-02-17T01:15:46.012Z,53.72
2023-02-17T01:18:49.496Z,52.30
2023-02-17T01:21:53.854Z,53.13
2023-02-17T01:24:56.358Z,51.85
2023-02-17T01:27:59.329Z,52.50
2023-02-17T01:31:07.814Z,52.28
2023-02-17T01:34:11.452Z,53.55
2023-02-17T01:37:13.852Z,38.35
2023-02-17T01:40:16.928Z,52.03
2023-02-17T01:43:19.325Z,57.55
2023-02-17T01:46:21.774Z,52.85
2023-02-17T01:49:34.467Z,52.67
2023-02-17T01:52:37.164Z,52.92
2023-02-17T01:55:40.458Z,55.78
2023-02-17T01:58:46.505Z,41.42
2023-02-17T02:01:52.522Z,50.97
2023-02-17T02:04:55.664Z,50.80
2023-02-17T02:07:58.183Z,51.35
2023-02-17T02:11:01.251Z,50.28
2023-02-17T02:14:06.978Z,51.13
2023-02-17T02:17:30.030Z,50.20
2023-02-17T02:20:58.097Z,49.13
2023-02-17T02:24:06.018Z,51.58
2023-02-17T02:27:25.525Z,48.55
2023-02-17T02:30:50.822Z,50.50
2023-02-17T02:33:58.024Z,52.60
2023-02-17T02:37:09.187Z,53.22
2023-02-17T02:40:12.107Z,50.10
2023-02-17T02:43:15.814Z,50.28
2023-02-17T02:46:18.196Z,46.58
2023-02-17T02:49:20.596Z,47.17
2023-02-17T02:52:28.300Z,46.40
2023-02-17T02:55:45.594Z,46.42
2023-02-17T02:58:59.642Z,47.60
2023-02-17T03:02:04.992Z,46.50
2023-02-17T03:05:25.890Z,45.08
2023-02-17T03:08:46.523Z,46.25
2023-02-17T03:11:49.671Z,47.45
2023-02-17T03:14:57.413Z,44.42
2023-02-17T03:18:01.267Z,45.55
2023-02-17T03:21:09.768Z,47.47
2023-02-17T03:24:12.228Z,42.90
2023-02-17T03:27:14.647Z,41.85
2023-02-17T03:30:17.310Z,41.38
2023-02-17T03:33:19.735Z,45.55
2023-02-17T03:36:22.096Z,45.97
2023-02-17T03:39:24.598Z,43.72
2023-02-17T03:42:27.766Z,44.70
2023-02-17T03:45:30.189Z,34.07
2023-02-17T03:48:32.683Z,41.45
2023-02-17T03:51:35.100Z,39.97
2023-02-17T03:54:38.512Z,49.55
2023-02-17T03:57:40.885Z,44.75
2023-02-17T04:00:43.442Z,44.70
2023-02-17T04:03:45.740Z,41.60
2023-02-17T04:06:48.209Z,42.83
2023-02-17T04:09:50.471Z,36.60
2023-02-17T04:12:52.774Z,36.88
2023-02-17T04:15:55.597Z,37.08
2023-02-17T04:18:58.010Z,37.60
2023-02-17T04:22:01.048Z,42.08
2023-02-17T04:25:03.678Z,38.47
2023-02-17T04:28:07.290Z,42.38
2023-02-17T04:31:10.106Z,38.70
2023-02-17T04:34:12.607Z,37.97
2023-02-17T04:37:15.066Z,39.10
2023-02-17T04:40:18.270Z,40.30
2023-02-17T04:43:20.846Z,40.92
2023-02-17T04:46:23.330Z,40.13
2023-02-17T04:49:25.874Z,38.53
2023-02-17T04:52:28.675Z,38.80
2023-02-17T04:55:31.770Z,30.90
2023-02-17T04:58:34.157Z,42.58
2023-02-17T05:01:36.490Z,41.97
2023-02-17T05:04:38.865Z,40.38
2023-02-17T05:07:43.983Z,42.08
2023-02-17T05:10:46.450Z,42.53
2023-02-17T05:13:49.065Z,47.65
2023-02-17T05:16:52.801Z,42.60
2023-02-17T05:22:57.705Z,42.05
2023-02-17T05:26:00.020Z,40.38
2023-02-17T05:29:02.548Z,39.83
2023-02-17T05:32:04.937Z,40.70
2023-02-17T05:35:07.840Z,43.00
2023-02-17T05:38:10.268Z,36.40
2023-02-17T05:41:12.620Z,38.40
2023-02-17T05:44:15.060Z,38.05
2023-02-17T05:47:17.868Z,43.45
2023-02-17T05:50:20.251Z,38.58
2023-02-17T05:53:24.684Z,40.75
2023-02-17T05:56:27.040Z,39.13
2023-02-17T05:59:29.597Z,39.15
2023-02-17T06:02:32.029Z,41.67
2023-02-17T06:05:34.631Z,37.80
2023-02-17T06:08:37.326Z,41.45
2023-02-17T06:11:40.013Z,43.78
2023-02-17T06:14:42.901Z,45.05
2023-02-17T06:17:45.707Z,39.97
2023-02-17T06:20:49.185Z,42.85
2023-02-17T06:23:51.977Z,41.13
2023-02-17T06:26:54.580Z,41.08
2023-02-17T06:29:57.247Z,39.70
2023-02-17T06:33:00.173Z,40.85
2023-02-17T06:36:03.024Z,41.08
2023-02-17T06:39:05.654Z,40.42
2023-02-17T06:42:08.266Z,39.90
2023-02-17T06:45:11.539Z,40.58
2023-02-17T06:48:14.040Z,40.23
2023-02-17T06:51:16.644Z,41.85
2023-02-17T06:54:18.960Z,39.50
2023-02-17T06:57:22.210Z,40.00
2023-02-17T07:00:25.255Z,46.57
2023-02-17T07:03:27.719Z,43.90
2023-02-17T07:06:30.475Z,42.15
2023-02-17T07:09:34.173Z,40.13
2023-02-17T07:12:36.991Z,46.25
2023-02-17T07:15:39.391Z,45.63
2023-02-17T07:18:43.582Z,39.63
2023-02-17T07:21:46.819Z,40.50
2023-02-17T07:24:49.212Z,39.28
2023-02-17T07:27:52.386Z,40.88
2023-02-17T07:30:55.340Z,42.63
2023-02-17T07:33:58.109Z,38.85
2023-02-17T07:37:00.456Z,39.90
2023-02-17T07:40:03.751Z,40.35
2023-02-17T07:43:06.223Z,37.43
2023-02-17T07:46:10.388Z,39.70
2023-02-17T07:49:15.046Z,41.35
2023-02-17T07:52:18.904Z,43.63
2023-02-17T07:55:22.272Z,37.55
2023-02-17T07:58:26.483Z,42.17
2023-02-17T08:01:28.947Z,30.58
2023-02-17T08:04:32.984Z,37.92
2023-02-17T08:07:35.399Z,43.53
2023-02-17T08:10:57.842Z,42.92
2023-02-17T08:14:00.962Z,43.40
2023-02-17T08:17:03.557Z,40.67
2023-02-17T08:20:09.252Z,43.30
2023-02-17T08:23:12.302Z,40.08
2023-02-17T08:26:15.575Z,37.13
2023-02-17T08:29:20.979Z,30.77
2023-02-17T08:32:23.616Z,36.47
2023-02-17T08:35:26.623Z,37.28
2023-02-17T08:38:30.046Z,38.22
2023-02-17T08:41:35.327Z,30.77
2023-02-17T08:44:38.106Z,39.63
2023-02-17T08:47:40.814Z,41.20
2023-02-17T08:50:43.990Z,40.63
2023-02-17T08:53:48.925Z,34.00
2023-02-17T08:56:51.389Z,43.08
2023-02-17T08:59:55.252Z,40.13
2023-02-17T09:02:58.138Z,38.67
2023-02-17T09:06:00.677Z,42.83
2023-02-17T09:09:05.184Z,53.58
2023-02-17T09:12:08.001Z,41.20
2023-02-17T09:15:10.583Z,58.58
2023-02-17T09:18:13.688Z,37.38
2023-02-17T09:21:17.141Z,40.30
2023-02-17T09:24:20.739Z,37.53
2023-02-17T09:27:23.281Z,37.63
2023-02-17T09:30:25.904Z,45.92
2023-02-17T09:33:28.384Z,36.10
2023-02-17T09:36:39.837Z,38.78
2023-02-17T09:39:42.178Z,36.17
2023-02-17T09:42:45.024Z,43.20
2023-02-17T09:46:22.536Z,40.50
2023-02-17T09:49:40.209Z,38.40
2023-02-17T09:53:04.181Z,42.90
2023-02-17T09:56:09.676Z,40.40
2023-02-17T09:59:17.325Z,41.30
2023-02-17T10:02:37.334Z,41.63
2023-02-17T10:05:52.144Z,39.17
2023-02-17T10:09:22.598Z,36.55
2023-02-17T10:12:28.688Z,34.58
2023-02-17T10:15:42.613Z,37.22
2023-02-17T10:22:18.447Z,38.97
2023-02-17T10:25:27.610Z,37.42
2023-02-17T10:28:49.296Z,40.88
2023-02-17T10:32:08.327Z,39.17
2023-02-17T10:35:23.344Z,40.15
2023-02-17T10:38:28.859Z,39.35
2023-02-17T10:41:35.920Z,41.97
2023-02-17T10:44:39.633Z,37.75
2023-02-17T10:47:42.418Z,41.90
2023-02-17T10:50:46.697Z,37.55
2023-02-17T10:56:55.238Z,38.10
2023-02-17T10:59:58.639Z,43.30
2023-02-17T11:03:01.422Z,38.03
2023-02-17T11:06:06.869Z,38.90
2023-02-17T11:09:34.797Z,41.58
2023-02-17T11:12:41.821Z,37.53
2023-02-17T11:15:46.017Z,38.78
2023-02-17T11:21:53.296Z,38.03
2023-02-17T11:25:01.718Z,40.05
2023-02-17T11:28:27.360Z,40.80
2023-02-17T11:31:32.264Z,39.47
2023-02-17T11:34:40.316Z,38.22
2023-02-17T11:37:43.476Z,42.80
2023-02-17T11:40:58.187Z,39.17
2023-02-17T11:44:00.824Z,41.35
2023-02-17T11:47:24.025Z,36.13
2023-02-17T11:50:41.308Z,36.45
2023-02-17T11:53:52.433Z,38.13
2023-02-17T11:57:08.074Z,42.78
2023-02-17T12:00:22.851Z,43.25
2023-02-17T12:03:57.621Z,36.65
2023-02-17T12:07:48.168Z,37.53
2023-02-17T12:11:00.083Z,37.92
2023-02-17T12:14:18.999Z,36.33
2023-02-17T12:17:27.384Z,36.92
2023-02-17T12:20:54.588Z,44.80
2023-02-17T12:24:06.639Z,37.22
2023-02-17T12:27:27.505Z,36.08
2023-02-17T12:30:48.864Z,38.47
2023-02-17T12:33:59.431Z,44.45
2023-02-17T12:37:02.270Z,39.20
2023-02-17T12:40:08.718Z,49.15
2023-02-17T12:43:32.208Z,46.55
2023-02-17T12:46:40.987Z,36.72
2023-02-17T12:50:06.619Z,32.75
2023-02-17T12:53:16.713Z,35.03
2023-02-17T12:56:34.675Z,38.42
2023-02-17T12:59:41.713Z,37.75
2023-02-17T13:02:44.208Z,30.00
2023-02-17T13:05:49.381Z,33.00
2023-02-17T13:09:01.206Z,32.88
2023-02-17T13:12:12.969Z,39.42
2023-02-17T13:15:58.885Z,35.17
2023-02-17T13:19:08.918Z,29.98
2023-02-17T13:22:24.040Z,29.25
2023-02-17T13:25:30.157Z,26.50
2023-02-17T13:28:38.471Z,25.92
2023-02-17T13:31:58.824Z,25.52
2023-02-17T13:35:24.620Z,25.52
2023-02-17T13:38:32.035Z,26.05
2023-02-17T13:41:48.184Z,29.08
2023-02-17T13:44:51.974Z,27.48
2023-02-17T13:47:57.872Z,29.92
2023-02-17T13:51:10.025Z,25.15
2023-02-17T13:54:13.116Z,24.52
2023-02-17T13:57:28.747Z,22.33
2023-02-17T14:00:32.308Z,21.90
2023-02-17T14:03:42.589Z,23.40
2023-02-17T14:06:45.105Z,21.42
2023-02-17T14:09:54.818Z,24.27
2023-02-17T14:12:57.682Z,24.17
2023-02-17T14:16:01.397Z,40.25
2023-02-17T14:19:11.186Z,22.92
2023-02-17T14:22:31.320Z,24.85
2023-02-17T14:25:37.033Z,20.05
2023-02-17T14:28:39.354Z,22.60
2023-02-17T14:31:50.532Z,33.55
2023-02-17T14:34:53.103Z,26.80
2023-02-17T14:37:56.234Z,37.40
2023-02-17T14:41:01.256Z,27.10
2023-02-17T14:44:03.839Z,30.20
2023-02-17T14:47:06.686Z,24.90
2023-02-17T14:50:09.760Z,23.17
2023-02-17T14:53:27.055Z,19.13
2023-02-17T14:56:42.510Z,22.42
2023-02-17T14:59:45.414Z,23.80
2023-02-17T15:02:48.283Z,21.48
2023-02-17T15:05:52.581Z,19.80
2023-02-17T15:08:55.416Z,20.95
2023-02-17T15:11:58.821Z,23.17
2023-02-17T15:15:01.407Z,23.35
2023-02-17T15:18:04.093Z,20.48
2023-02-17T15:21:18.301Z,21.92
2023-02-17T15:24:29.913Z,24.63
2023-02-17T15:27:33.532Z,25.17
2023-02-17T15:30:37.241Z,23.83
2023-02-17T15:33:39.978Z,17.80
2023-02-17T15:36:42.489Z,22.92
2023-02-17T15:39:44.830Z,19.67
2023-02-17T15:42:51.127Z,23.90
2023-02-17T15:45:53.635Z,25.17
2023-02-17T15:48:55.956Z,26.83
2023-02-17T15:51:58.410Z,22.50
2023-02-17T15:55:00.847Z,24.23
2023-02-17T15:58:05.401Z,29.80
2023-02-17T16:01:13.957Z,26.73
2023-02-17T16:04:16.412Z,20.98
2023-02-17T16:07:19.817Z,19.77
2023-02-17T16:10:27.341Z,20.73
2023-02-17T16:13:29.792Z,21.52
2023-02-17T16:16:33.809Z,22.58
2023-02-17T16:19:36.216Z,28.58
2023-02-17T16:22:38.916Z,25.15
2023-02-17T16:25:43.234Z,20.23
2023-02-17T16:28:45.804Z,16.67
2023-02-17T16:31:49.041Z,19.70
2023-02-17T16:34:52.043Z,19.07
2023-02-17T16:38:01.154Z,23.77
2023-02-17T16:41:03.636Z,16.50
2023-02-17T16:44:07.627Z,18.63
2023-02-17T16:47:19.953Z,25.98
2023-02-17T16:50:32.000Z,16.10
2023-02-17T16:53:34.504Z,18.30
2023-02-17T16:56:40.904Z,17.67
2023-02-17T16:59:43.393Z,17.33
2023-02-17T17:02:46.103Z,15.77
2023-02-17T17:05:49.038Z,16.27
2023-02-17T17:08:52.062Z,14.52
2023-02-17T17:11:58.749Z,14.90
2023-02-17T17:15:01.166Z,17.10
2023-02-17T17:18:06.531Z,20.85
2023-02-17T17:21:12.476Z,16.60
2023-02-17T17:24:15.032Z,14.95
2023-02-17T17:27:17.765Z,15.95
2023-02-17T17:30:22.865Z,16.08
2023-02-17T17:33:25.214Z,16.17
2023-02-17T17:36:41.869Z,15.00
2023-02-17T17:39:44.254Z,16.17
2023-02-17T17:42:46.869Z,17.33
2023-02-17T17:45:52.868Z,16.27
2023-02-17T17:48:56.211Z,17.50
2023-02-17T17:51:58.638Z,18.67
2023-02-17T17:55:01.191Z,17.15
2023-02-17T17:58:03.695Z,15.52
2023-02-17T18:01:06.749Z,17.17
2023-02-17T18:04:09.690Z,17.65
2023-02-17T18:07:12.328Z,16.10
2023-02-17T18:10:15.079Z,15.45
2023-02-17T18:13:17.593Z,14.52
2023-02-17T18:16:21.968Z,15.55
2023-02-17T18:19:24.435Z,14.82
2023-02-17T18:22:26.825Z,14.05
2023-02-17T18:25:29.238Z,14.32
2023-02-17T18:28:31.693Z,16.38
2023-02-17T18:31:34.214Z,15.93
2023-02-17T18:34:36.663Z,14.77
2023-02-17T18:37:41.182Z,17.13
2023-02-17T18:40:43.731Z,14.57
2023-02-17T18:43:46.222Z,15.48
2023-02-17T18:46:48.554Z,15.88
2023-02-17T18:49:52.406Z,17.75
2023-02-17T18:52:54.884Z,15.80
2023-02-17T18:55:57.190Z,15.05
2023-02-17T18:59:00.284Z,15.38
2023-02-17T19:02:10.439Z,14.40
2023-02-17T19:05:14.166Z,13.40
2023-02-17T19:08:16.608Z,14.75
2023-02-17T19:11:20.718Z,15.98
2023-02-17T19:14:23.134Z,19.20
2023-02-17T19:17:25.774Z,16.35
2023-02-17T19:20:29.386Z,4.53
2023-02-17T19:23:32.003Z,5.65
2023-02-17T19:26:34.570Z,3.58
2023-02-17T19:29:37.396Z,2.65
2023-02-17T19:32:40.243Z,3.40
2023-02-17T19:35:44.190Z,2.65
2023-02-17T19:38:47.729Z,3.30
2023-02-17T19:41:50.108Z,3.67
2023-02-17T19:44:52.442Z,3.78
2023-02-17T19:47:55.033Z,3.15
2023-02-17T19:51:02.830Z,4.68
2023-02-17T19:54:05.570Z,4.38
2023-02-17T19:57:08.105Z,4.13
2023-02-17T20:00:11.028Z,4.72
2023-02-17T20:03:13.283Z,3.97
2023-02-17T20:06:19.259Z,4.00
2023-02-17T20:09:23.040Z,3.13
2023-02-17T20:12:25.863Z,3.45
2023-02-17T20:15:28.323Z,3.80
2023-02-17T20:18:32.359Z,3.03
2023-02-17T20:21:38.573Z,3.35
2023-02-17T20:24:42.058Z,3.10
2023-02-17T20:27:44.702Z,3.10
2023-02-17T20:30:47.304Z,2.80
2023-02-17T20:33:49.879Z,3.38
2023-02-17T20:36:52.233Z,3.70
2023-02-17T20:39:54.710Z,3.88
2023-02-17T20:42:57.255Z,4.03
2023-02-17T20:46:00.447Z,3.40
2023-02-17T20:49:02.851Z,2.37
2023-02-17T20:52:05.872Z,5.22
2023-02-17T20:55:08.476Z,3.72
2023-02-17T20:58:12.144Z,3.45
2023-02-17T21:01:15.127Z,1.85
2023-02-17T21:04:17.533Z,2.72
2023-02-17T21:07:19.911Z,3.25
2023-02-17T21:10:25.602Z,3.40
2023-02-17T21:13:29.861Z,3.15
2023-02-17T21:16:35.875Z,3.28
2023-02-17T21:19:38.676Z,2.53
2023-02-17T21:22:41.701Z,3.10
2023-02-17T21:25:46.350Z,2.88
2023-02-17T21:28:49.003Z,4.38
2023-02-17T21:31:52.855Z,3.90
2023-02-17T21:34:56.018Z,3.83
2023-02-17T21:37:58.405Z,3.83
2023-02-17T21:41:12.022Z,3.83
2023-02-17T21:44:33.091Z,3.90
2023-02-17T21:47:35.588Z,3.38
2023-02-17T21:50:38.002Z,2.85
2023-02-17T21:53:40.708Z,3.00
2023-02-17T21:56:43.163Z,3.67
2023-02-17T21:59:45.607Z,4.20
2023-02-17T22:02:48.146Z,3.40
2023-02-17T22:05:50.938Z,2.97
2023-02-17T22:08:53.419Z,2.80
2023-02-17T22:11:55.788Z,3.83
2023-02-17T22:14:58.715Z,4.25
2023-02-17T22:18:01.463Z,4.70
2023-02-17T22:21:07.094Z,2.88
2023-02-17T22:24:09.801Z,3.80
2023-02-17T22:27:12.154Z,3.50
2023-02-17T22:30:14.654Z,3.20
2023-02-17T22:33:17.416Z,2.58
2023-02-17T22:36:22.916Z,2.67
2023-02-17T22:39:25.594Z,3.38
2023-02-17T22:42:28.946Z,2.92
2023-02-17T22:45:32.026Z,1.88
2023-02-17T22:48:36.544Z,3.13
2023-02-17T22:51:40.593Z,3.15
2023-02-17T22:54:44.202Z,2.88
2023-02-17T22:57:47.873Z,2.67
2023-02-17T23:00:50.418Z,3.20
2023-02-17T23:03:54.723Z,2.88
2023-02-17T23:06:57.404Z,2.25
2023-02-17T23:09:59.772Z,2.85
2023-02-17T23:13:02.205Z,2.58
2023-02-17T23:16:05.410Z,2.22
2023-02-17T23:19:09.711Z,2.30
2023-02-17T23:25:18.628Z,2.60
2023-02-17T23:28:22.981Z,2.03
2023-02-17T23:31:25.532Z,2.40
2023-02-17T23:34:28.696Z,2.95
2023-02-17T23:37:31.125Z,3.38
2023-02-17T23:40:36.964Z,2.28
2023-02-17T23:43:39.375Z,2.55
2023-02-17T23:46:42.971Z,2.00
2023-02-17T23:49:45.307Z,2.50
2023-02-17T23:52:47.720Z,2.22
2023-02-17T23:55:50.080Z,2.15
2023-02-17T23:58:52.542Z,2.53
